Cotopaxi, Colorado
Current Conditions -  °F | °C
As of 10:55 PM on Sunday 19 Oct 2014 (Local Time) from KANK Reporting Station
Overcast Overcast  
Wind Chill: 51°   Ceiling: 7000
Heat Index: 51°   Visibility: 10mi
Dew Point: 36°   Wind: 8mph
Humidity: 56%   Direction: 250°WSW
Pressure: 30.37"   Gusts: NA
Location:  38.37°N, 105.69°W
Report Text: KANK 200455Z AUTO 25007KT 10SM OVC070 11/02 A3037 RMK AO1 T01080023
Loading
Personal Weather Stations






























Interactive Weather Map
Tropical Storm Tracking
New forecast layout! Learn more

10-Day Weather Forecast

Advertisements
Track Severe Weather on mobile